Accueil
METAR-TAF:

METAR-TAF

Aéroports :

Aéroport de Dzaoudzi-Pamandzi

Dzaoudzi, Mayotte

latitude: 12-48S, longitude: 045-17E, altitude: 8 m

Observation

Le bulletin a été fait il y a 32 minutes, à 11:30 UTC
Vent 17 kt de sud/sud-ouest
Température 29°C
Humidité 66%
Pression 1011 hPa
Visibilité 10 km ou plus
pas de nuages en-dessous de 1500 mètres et pas de cumulonimbus.

METAR: FMCZ 061130Z AUTO 20017KT CAVOK 29/22 Q1011 NOSIG

Heure: 15:02 (12:02 UTC)

Prévision

Le bulletin a été fait il y a 1 heure et 2 minutes, à 11:00 UTC
Prévision valable du 06 à 12 UTC au 07 à 12 UTC
Vent 18 kt de sud/sud-ouest
Visibilité 10 km ou plus
Quelques nuages à une hauteur de 2500 ft

TAF: FMCZ 061100Z 0612/0712 20018KT 9999 FEW025

Observations et prévisions météorologiques de plus de 4000 aéroports (messages METAR et TAF).

Les stations disponibles sont représentées par des disques jaunes et rouges sur la carte.

Passer la souris dessus pour voir le nom de la station.

Cliquer dessus pour voir les observations et prévisions météorologiques.

Pour changer de carte: cliquez sur les boutons verts avec une croix noire pour zoomer, sur le bouton vert avec un tiret pour effectuer un zoom arrière, ou sur les flèches vertes pour les cartes adjacentes.


METAR-TAF: